Time,TemperatureF,DewpointF,PressureIn,WindDirection,WindDirectionDegrees,WindSpeedMPH,WindSpeedGustMPH,Humidity,HourlyPrecipIn,Conditions,Clouds,dailyrainin,SoftwareType,DateUTC
2013-03-14 00:00:00,51.7,9.6,28.77,West,259,1.0,1.0,18,0.00,,,0.00,VWS V14.01,2013-03-14 07:00:00,
2013-03-14 00:05:00,51.6,9.5,28.77,West,259,0.0,3.0,18,0.00,,,0.00,VWS V14.01,2013-03-14 07:05:00,
2013-03-14 00:10:00,51.5,9.4,28.77,West,259,2.0,3.0,18,0.00,,,0.00,VWS V14.01,2013-03-14 07:10:00,
2013-03-14 00:15:00,51.5,9.4,28.77,West,259,1.0,3.0,18,0.00,,,0.00,VWS V14.01,2013-03-14 07:15:00,
2013-03-14 00:20:00,51.4,9.3,28.77,West,259,2.0,3.0,18,0.00,,,0.00,VWS V14.01,2013-03-14 07:20:00,
2013-03-14 00:25:00,51.2,9.2,28.77,West,259,0.0,3.0,18,0.00,,,0.00,VWS V14.01,2013-03-14 07:25:00,
2013-03-14 00:30:00,51.2,10.4,28.77,West,259,0.0,1.0,19,0.00,,,0.00,VWS V14.01,2013-03-14 07:30:00,
2013-03-14 00:35:00,51.1,10.3,28.77,West,259,0.0,1.0,19,0.00,,,0.00,VWS V14.01,2013-03-14 07:35:00,
2013-03-14 00:40:00,51.1,10.3,28.77,West,259,0.0,1.0,19,0.00,,,0.00,VWS V14.01,2013-03-14 07:40:00,
2013-03-14 00:45:00,51.0,10.2,28.77,West,259,0.0,1.0,19,0.00,,,0.00,VWS V14.01,2013-03-14 07:45:00,
2013-03-14 00:50:00,50.9,10.1,28.77,West,259,0.0,1.0,19,0.00,,,0.00,VWS V14.01,2013-03-14 07:50:00,
2013-03-14 00:55:00,50.8,10.0,28.77,West,259,0.0,1.0,19,0.00,,,0.00,VWS V14.01,2013-03-14 07:55:00,
2013-03-14 01:00:00,50.8,10.0,28.77,West,259,0.0,0.0,19,0.00,,,0.00,VWS V14.01,2013-03-14 08:00:00,
2013-03-14 01:05:00,50.8,10.0,28.77,West,259,0.0,0.0,19,0.00,,,0.00,VWS V14.01,2013-03-14 08:05:00,
2013-03-14 01:10:00,50.7,10.0,28.77,West,259,0.0,0.0,19,0.00,,,0.00,VWS V14.01,2013-03-14 08:10:00,
2013-03-14 01:15:00,50.7,10.0,28.77,West,259,0.0,0.0,19,0.00,,,0.00,VWS V14.01,2013-03-14 08:15:00,
2013-03-14 01:20:00,50.6,9.9,28.77,West,259,0.0,0.0,19,0.00,,,0.00,VWS V14.01,2013-03-14 08:20:00,
2013-03-14 01:25:00,50.8,10.0,28.77,West,259,0.0,0.0,19,0.00,,,0.00,VWS V14.01,2013-03-14 08:25:00,
2013-03-14 01:30:00,50.8,10.0,28.77,West,259,0.0,0.0,19,0.00,,,0.00,VWS V14.01,2013-03-14 08:30:00,
2013-03-14 01:35:00,50.7,10.0,28.77,West,259,0.0,0.0,19,0.00,,,0.00,VWS V14.01,2013-03-14 08:35:00,
2013-03-14 01:40:00,50.7,10.0,28.77,West,259,0.0,0.0,19,0.00,,,0.00,VWS V14.01,2013-03-14 08:40:00,
2013-03-14 01:45:00,50.7,10.0,28.77,West,259,0.0,0.0,19,0.00,,,0.00,VWS V14.01,2013-03-14 08:45:00,
2013-03-14 01:50:00,50.8,10.0,28.77,West,259,0.0,0.0,19,0.00,,,0.00,VWS V14.01,2013-03-14 08:50:00,
2013-03-14 01:55:00,50.7,10.0,28.77,West,259,2.0,3.0,19,0.00,,,0.00,VWS V14.01,2013-03-14 08:55:00,
2013-03-14 02:00:00,50.6,9.9,28.77,West,259,1.0,2.0,19,0.00,,,0.00,VWS V14.01,2013-03-14 09:00:00,
2013-03-14 02:05:00,50.5,9.8,28.77,West,259,2.0,2.0,19,0.00,,,0.00,VWS V14.01,2013-03-14 09:05:00,
2013-03-14 02:10:00,50.5,9.8,28.77,West,259,1.0,2.0,19,0.00,,,0.00,VWS V14.01,2013-03-14 09:10:00,
2013-03-14 02:15:00,50.5,9.8,28.77,West,259,0.0,2.0,19,0.00,,,0.00,VWS V14.01,2013-03-14 09:15:00,
2013-03-14 02:20:00,50.4,9.7,28.77,West,259,0.0,2.0,19,0.00,,,0.00,VWS V14.01,2013-03-14 09:20:00,
2013-03-14 02:25:00,50.2,9.6,28.77,West,259,0.0,2.0,19,0.00,,,0.00,VWS V14.01,2013-03-14 09:25:00,
2013-03-14 02:30:00,50.1,9.5,28.77,West,259,0.0,0.0,19,0.00,,,0.00,VWS V14.01,2013-03-14 09:30:00,
2013-03-14 02:35:00,50.0,9.4,28.77,West,259,0.0,0.0,19,0.00,,,0.00,VWS V14.01,2013-03-14 09:35:00,
2013-03-14 02:40:00,49.9,9.3,28.77,West,259,0.0,0.0,19,0.00,,,0.00,VWS V14.01,2013-03-14 09:40:00,
2013-03-14 02:45:00,49.8,9.2,28.77,West,259,0.0,0.0,19,0.00,,,0.00,VWS V14.01,2013-03-14 09:45:00,
2013-03-14 02:50:00,49.7,9.1,28.77,West,259,0.0,0.0,19,0.00,,,0.00,VWS V14.01,2013-03-14 09:50:00,
2013-03-14 02:55:00,49.7,9.1,28.77,West,259,0.0,0.0,19,0.00,,,0.00,VWS V14.01,2013-03-14 09:55:00,
2013-03-14 03:00:00,49.9,9.3,28.77,West,259,0.0,0.0,19,0.00,,,0.00,VWS V14.01,2013-03-14 10:00:00,
2013-03-14 03:05:00,49.9,9.3,28.77,West,259,0.0,0.0,19,0.00,,,0.00,VWS V14.01,2013-03-14 10:05:00,
2013-03-14 03:10:00,49.9,9.3,28.77,West,259,0.0,0.0,19,0.00,,,0.00,VWS V14.01,2013-03-14 10:10:00,
2013-03-14 03:15:00,49.8,9.2,28.77,West,259,0.0,0.0,19,0.00,,,0.00,VWS V14.01,2013-03-14 10:15:00,
2013-03-14 03:21:00,49.7,9.1,28.77,West,259,0.0,0.0,19,0.00,,,0.00,VWS V14.01,2013-03-14 10:21:00,
2013-03-14 03:26:00,49.6,9.1,28.77,West,259,0.0,0.0,19,0.00,,,0.00,VWS V14.01,2013-03-14 10:26:00,
2013-03-14 03:31:00,49.6,9.1,28.77,West,259,0.0,0.0,19,0.00,,,0.00,VWS V14.01,2013-03-14 10:31:00,
2013-03-14 03:36:00,49.5,9.0,28.77,West,259,0.0,0.0,19,0.00,,,0.00,VWS V14.01,2013-03-14 10:36:00,
2013-03-14 03:41:00,49.5,9.0,28.77,West,259,0.0,0.0,19,0.00,,,0.00,VWS V14.01,2013-03-14 10:41:00,
2013-03-14 03:46:00,49.4,8.9,28.77,West,259,0.0,0.0,19,0.00,,,0.00,VWS V14.01,2013-03-14 10:46:00,
2013-03-14 03:51:00,49.4,8.9,28.77,West,259,1.0,1.0,19,0.00,,,0.00,VWS V14.01,2013-03-14 10:51:00,
2013-03-14 03:57:00,49.3,8.8,28.77,West,259,0.0,1.0,19,0.00,,,0.00,VWS V14.01,2013-03-14 10:57:00,
2013-03-14 04:02:00,49.3,8.8,28.77,West,259,0.0,1.0,19,0.00,,,0.00,VWS V14.01,2013-03-14 11:02:00,
2013-03-14 04:07:00,49.3,9.9,28.77,West,259,0.0,1.0,20,0.00,,,0.00,VWS V14.01,2013-03-14 11:07:00,
2013-03-14 04:12:00,49.3,9.9,28.77,West,259,0.0,1.0,20,0.00,,,0.00,VWS V14.01,2013-03-14 11:12:00,
2013-03-14 04:17:00,49.1,9.8,28.77,West,259,0.0,1.0,20,0.00,,,0.00,VWS V14.01,2013-03-14 11:17:00,
2013-03-14 04:22:00,49.0,9.7,28.77,West,259,1.0,1.0,20,0.00,,,0.00,VWS V14.01,2013-03-14 11:22:00,
2013-03-14 04:27:00,27.0,-8.7,28.77,West,259,0.0,1.0,20,0.00,,,0.00,VWS V14.01,2013-03-14 11:27:00,
2013-03-14 04:30:00,26.9,-8.8,28.77,West,259,2.0,2.0,20,0.00,,,0.00,VWS V14.01,2013-03-14 11:30:00,
2013-03-14 04:33:00,27.0,-8.7,28.77,West,259,2.0,3.0,20,0.00,,,0.00,VWS V14.01,2013-03-14 11:33:00,
2013-03-14 04:38:00,26.9,-8.8,28.77,West,259,3.0,4.0,20,0.00,,,0.00,VWS V14.01,2013-03-14 11:38:00,
2013-03-14 04:43:00,27.5,-8.3,18.30,East,82,3.0,4.0,20,0.00,,,0.00,VWS V14.01,2013-03-14 11:43:00,
2013-03-14 04:48:00,27.6,-8.2,18.30,East,82,0.0,4.0,20,0.00,,,0.00,VWS V14.01,2013-03-14 11:48:00,
2013-03-14 05:00:00,30.1,0.0,18.30,West,270,1.0,5.0,0,0.00,,,0.00,VWS V14.01,2013-03-14 12:00:00,
2013-03-14 05:30:00,48.0,0.0,18.30,East,90,1.0,2.0,0,0.00,,,0.00,VWS V14.01,2013-03-14 12:30:00,
2013-03-14 06:00:00,46.8,7.9,18.30,East,90,0.0,1.0,20,0.00,,,0.00,VWS V14.01,2013-03-14 13:00:00,
2013-03-14 06:30:00,47.1,8.1,18.30,East,90,0.0,2.0,20,0.00,,,0.00,VWS V14.01,2013-03-14 13:30:00,
2013-03-14 07:00:00,47.0,8.0,18.30,East,90,0.0,3.0,20,0.00,,,0.00,VWS V14.01,2013-03-14 14:00:00,
2013-03-14 07:30:00,47.0,8.0,18.30,East,90,0.0,3.0,20,0.00,,,0.00,VWS V14.01,2013-03-14 14:30:00,
2013-03-14 08:00:00,47.6,8.5,18.30,WNW,292,1.0,5.0,20,0.00,,,0.00,VWS V14.01,2013-03-14 15:00:00,
2013-03-14 08:30:00,48.5,9.3,18.30,West,270,2.0,6.0,20,0.00,,,0.00,VWS V14.01,2013-03-14 15:30:00,
2013-03-14 09:00:00,49.9,10.4,18.30,WNW,292,1.0,4.0,20,0.00,,,0.00,VWS V14.01,2013-03-14 16:00:00,
2013-03-14 09:30:00,49.9,10.4,18.30,WNW,292,1.0,5.0,20,0.00,,,0.00,VWS V14.01,2013-03-14 16:30:00,
2013-03-14 10:00:00,50.9,11.3,18.30,SW,225,1.0,5.0,20,0.00,,,0.00,VWS V14.01,2013-03-14 17:00:00,
2013-03-14 10:30:00,52.8,0.0,18.30,WSW,248,1.0,6.0,0,0.00,,,0.00,VWS V14.01,2013-03-14 17:30:00,
2013-03-14 11:00:00,52.9,0.0,18.30,SW,225,4.0,9.0,0,0.00,,,0.00,VWS V14.01,2013-03-14 18:00:00,
2013-03-14 11:30:00,55.8,11.7,18.30,WSW,248,4.0,9.0,17,0.00,,,0.00,VWS V14.01,2013-03-14 18:30:00,
2013-03-14 12:00:00,57.6,0.0,18.30,WSW,248,4.0,9.0,0,0.00,,,0.00,VWS V14.01,2013-03-14 19:00:00,
2013-03-14 12:30:00,58.6,13.9,18.30,WSW,248,4.0,10.0,17,0.00,,,0.00,VWS V14.01,2013-03-14 19:30:00,
2013-03-14 13:00:00,58.6,17.7,18.30,West,270,4.0,11.0,20,0.00,,,0.00,VWS V14.01,2013-03-14 20:00:00,
2013-03-14 13:30:00,57.6,21.1,18.30,SW,225,6.0,12.0,24,0.00,,,0.00,VWS V14.01,2013-03-14 20:30:00,
2013-03-14 14:00:00,56.8,19.4,18.30,WSW,248,7.0,14.0,23,0.00,,,0.00,VWS V14.01,2013-03-14 21:00:00,
2013-03-14 14:30:00,57.8,20.3,18.30,WSW,248,6.0,15.0,23,0.00,,,0.00,VWS V14.01,2013-03-14 21:30:00,
2013-03-14 15:00:00,58.9,27.5,18.30,West,270,5.0,10.0,30,0.00,,,0.00,VWS V14.01,2013-03-14 22:00:00,
2013-03-14 15:30:00,57.2,28.4,18.30,SW,225,4.0,12.0,33,0.00,,,0.00,VWS V14.01,2013-03-14 22:30:00,
2013-03-14 16:00:00,58.2,25.3,18.30,West,270,5.0,11.0,28,0.00,,,0.00,VWS V14.01,2013-03-14 23:00:00,
2013-03-14 16:30:00,56.5,23.8,18.30,WSW,248,5.0,11.0,28,0.00,,,0.00,VWS V14.01,2013-03-14 23:30:00,
2013-03-14 17:00:00,58.2,24.4,18.30,West,270,4.0,10.0,27,0.00,,,0.00,VWS V14.01,2013-03-15 00:00:00,
2013-03-14 17:30:00,58.2,26.1,18.30,West,270,3.0,7.0,29,0.00,,,0.00,VWS V14.01,2013-03-15 00:30:00,
2013-03-14 18:00:00,57.6,23.9,18.30,WSW,248,3.0,7.0,27,0.00,,,0.00,VWS V14.01,2013-03-15 01:00:00,
2013-03-14 18:30:00,56.9,21.5,18.30,West,270,2.0,7.0,25,0.00,,,0.00,VWS V14.01,2013-03-15 01:30:00,
2013-03-14 19:00:00,56.6,19.2,18.30,WSW,248,1.0,6.0,23,0.00,,,0.00,VWS V14.01,2013-03-15 02:00:00,
2013-03-14 19:30:00,56.3,18.0,18.30,WSW,248,0.0,3.0,22,0.00,,,0.00,VWS V14.01,2013-03-15 02:30:00,
2013-03-14 20:00:00,56.2,17.9,18.30,WSW,248,1.0,4.0,22,0.00,,,0.00,VWS V14.01,2013-03-15 03:00:00,
2013-03-14 20:30:00,55.6,16.3,18.30,WSW,248,1.0,3.0,21,0.00,,,0.00,VWS V14.01,2013-03-15 03:30:00,
2013-03-14 21:00:00,55.4,15.0,18.30,WSW,248,0.0,4.0,20,0.00,,,0.00,VWS V14.01,2013-03-15 04:00:00,
2013-03-14 21:30:00,55.4,15.0,18.30,WSW,248,0.0,3.0,20,0.00,,,0.00,VWS V14.01,2013-03-15 04:30:00,
2013-03-14 22:00:00,55.1,14.8,18.30,WSW,248,0.0,1.0,20,0.00,,,0.00,VWS V14.01,2013-03-15 05:00:00,
2013-03-14 22:30:00,54.4,14.2,18.30,WSW,248,0.0,1.0,20,0.00,,,0.00,VWS V14.01,2013-03-15 05:30:00,
2013-03-14 23:00:00,54.3,12.9,18.30,WSW,248,0.0,1.0,19,0.00,,,0.00,VWS V14.01,2013-03-15 06:00:00,
2013-03-14 23:30:00,54.2,12.9,18.30,WSW,248,0.0,0.0,19,0.00,,,0.00,VWS V14.01,2013-03-15 06:30:00,